Time;durP1;ratioP1;P1;durP2;ratioP2;P2;SDS_P1;SDS_P2;PMS_P1;PMS_P2;Temp;Humidity;BMP_temperature;BMP_pressure;BME280_temperature;BME280_humidity;BME280_pressure;Samples;Min_cycle;Max_cycle;Signal;HPM_P1;HPM_P2
2023/01/06 00:00:14;;;;;;;8.88;3.72;;;2.10;99.90;;;;;;5029520;28;20392;-87
2023/01/06 00:02:40;;;;;;;6.70;3.25;;;2.10;99.90;;;;;;5063374;28;20472;-88
2023/01/06 00:05:06;;;;;;;9.50;3.72;;;2.00;99.90;;;;;;5031595;28;20464;-86
2023/01/06 00:07:32;;;;;;;8.07;3.60;;;1.90;99.90;;;;;;5031349;28;20365;-87
2023/01/06 00:09:58;;;;;;;7.53;3.93;;;2.00;99.90;;;;;;5063147;28;20404;-87
2023/01/06 00:12:25;;;;;;;10.93;3.90;;;2.00;99.90;;;;;;5029976;28;20442;-86
2023/01/06 00:14:51;;;;;;;7.38;3.35;;;2.10;99.90;;;;;;5030057;28;20444;-88
2023/01/06 00:17:17;;;;;;;9.45;3.70;;;2.20;99.90;;;;;;5057512;28;20376;-86
2023/01/06 00:19:43;;;;;;;5.53;3.10;;;2.40;99.90;;;;;;5059627;28;20370;-86
2023/01/06 00:22:09;;;;;;;10.60;3.55;;;2.30;99.90;;;;;;5061696;28;20377;-86
2023/01/06 00:24:38;;;;;;;8.73;3.45;;;2.20;99.90;;;;;;5054804;28;20448;-87
2023/01/06 00:27:04;;;;;;;10.50;3.17;;;2.20;99.90;;;;;;5057904;28;20457;-88
2023/01/06 00:29:50;;;;;;;6.65;3.78;;;2.30;99.90;;;;;;5066887;28;20378;-87
2023/01/06 00:32:17;;;;;;;10.10;3.67;;;2.30;99.90;;;;;;5038071;28;20457;-87
2023/01/06 00:34:42;;;;;;;8.48;3.40;;;2.40;99.90;;;;;;5042949;28;20696;-88
2023/01/06 00:37:08;;;;;;;6.90;3.50;;;2.40;99.90;;;;;;5042227;28;20445;-86
2023/01/06 00:39:34;;;;;;;6.63;3.60;;;2.40;99.90;;;;;;5043787;28;20711;-86
2023/01/06 00:42:03;;;;;;;8.47;4.80;;;2.40;99.90;;;;;;5043245;28;20920;-86
2023/01/06 00:44:33;;;;;;;10.38;5.22;;;2.40;99.90;;;;;;5058821;28;20368;-86
2023/01/06 00:49:35;;;;;;;9.98;4.38;;;2.50;99.90;;;;;;5202825;23;20428;-86
2023/01/06 00:52:00;;;;;;;12.52;5.00;;;2.50;99.90;;;;;;5064468;28;20410;-86
2023/01/06 00:54:26;;;;;;;10.20;4.63;;;2.50;99.90;;;;;;5066557;28;20633;-87
2023/01/06 00:56:53;;;;;;;10.40;4.60;;;2.50;99.90;;;;;;5075647;28;20388;-87
2023/01/06 00:59:21;;;;;;;7.15;3.83;;;2.50;99.90;;;;;;5055144;28;20823;-87
2023/01/06 01:01:49;;;;;;;7.77;3.53;;;2.70;99.90;;;;;;5055627;28;20382;-86
2023/01/06 01:04:15;;;;;;;7.97;3.45;;;2.90;99.90;;;;;;5052974;28;20404;-86
2023/01/06 01:06:43;;;;;;;8.48;3.60;;;2.80;99.90;;;;;;5055835;28;20389;-86
2023/01/06 01:09:15;;;;;;;7.93;3.63;;;2.90;99.90;;;;;;5055575;28;20856;-87
2023/01/06 01:14:25;;;;;;;8.23;3.53;;;3.00;99.90;;;;;;5065837;28;20814;-86
2023/01/06 01:16:51;;;;;;;6.70;3.60;;;3.00;99.90;;;;;;5049449;28;21159;-87
2023/01/06 01:19:18;;;;;;;6.70;3.20;;;3.30;99.90;;;;;;5046381;28;20427;-86
2023/01/06 01:21:44;;;;;;;6.47;3.40;;;3.40;99.90;;;;;;5073407;28;20378;-86
2023/01/06 01:24:10;;;;;;;8.75;3.80;;;3.40;99.90;;;;;;5061105;28;20435;-86
2023/01/06 01:26:36;;;;;;;5.45;3.30;;;3.60;99.90;;;;;;5071285;28;20405;-87
2023/01/06 01:29:01;;;;;;;9.77;3.47;;;3.70;99.90;;;;;;5056251;28;20398;-87
2023/01/06 01:31:27;;;;;;;8.00;3.63;;;3.70;99.90;;;;;;5065449;28;20414;-86
2023/01/06 01:33:53;;;;;;;9.43;3.35;;;3.80;99.90;;;;;;5055764;28;20485;-86
2023/01/06 01:36:18;;;;;;;8.00;3.15;;;3.80;99.90;;;;;;5067259;28;20721;-87
2023/01/06 01:38:44;;;;;;;4.90;2.90;;;3.90;99.90;;;;;;5057774;28;20398;-86
2023/01/06 01:41:20;;;;;;;7.40;3.10;;;4.00;99.90;;;;;;5065409;28;20396;-86
2023/01/06 01:43:55;;;;;;;4.90;2.70;;;4.10;99.90;;;;;;5056421;28;20448;-85
2023/01/06 01:46:36;;;;;;;4.45;2.45;;;4.10;99.90;;;;;;5063930;28;20468;-86
2023/01/06 01:49:08;;;;;;;6.68;3.00;;;4.00;99.90;;;;;;5078442;28;20380;-87
2023/01/06 01:51:45;;;;;;;7.00;2.72;;;4.10;99.90;;;;;;5096476;28;20447;-86
2023/01/06 01:54:14;;;;;;;7.80;2.73;;;4.10;99.90;;;;;;5079349;28;20411;-86
2023/01/06 01:56:48;;;;;;;10.02;3.15;;;4.30;99.90;;;;;;5076099;28;20703;-86
2023/01/06 01:59:20;;;;;;;5.95;2.50;;;4.20;99.90;;;;;;5075857;28;20380;-87
2023/01/06 02:01:48;;;;;;;7.00;2.75;;;4.30;99.90;;;;;;5074697;28;20412;-86
2023/01/06 02:04:16;;;;;;;4.82;2.40;;;4.30;99.90;;;;;;5076653;28;20404;-86
2023/01/06 02:06:42;;;;;;;6.90;3.05;;;4.30;99.90;;;;;;5082600;28;21081;-86
2023/01/06 02:09:20;;;;;;;7.53;2.97;;;4.30;99.90;;;;;;5081009;28;20965;-86
2023/01/06 02:11:50;;;;;;;8.07;3.10;;;4.30;99.90;;;;;;5079554;28;20404;-86
2023/01/06 02:14:22;;;;;;;6.97;2.40;;;4.40;99.90;;;;;;5081834;28;20886;-86
2023/01/06 02:17:07;;;;;;;4.30;2.45;;;4.40;99.90;;;;;;5080531;28;20384;-85
2023/01/06 02:19:58;;;;;;;6.13;2.58;;;4.40;99.90;;;;;;5079556;28;20731;-86
2023/01/06 02:22:48;;;;;;;6.13;2.83;;;4.30;99.90;;;;;;5057304;28;20889;-87
2023/01/06 02:25:29;;;;;;;6.80;2.50;;;4.40;99.90;;;;;;5091640;28;20387;-86
2023/01/06 02:28:22;;;;;;;5.72;2.42;;;4.40;99.90;;;;;;5081577;28;20379;-85
2023/01/06 02:30:56;;;;;;;6.47;2.50;;;4.50;99.90;;;;;;5080329;28;20751;-85
2023/01/06 02:33:26;;;;;;;7.00;2.60;;;4.60;99.90;;;;;;5078466;28;20373;-87
2023/01/06 02:36:27;;;;;;;5.88;2.65;;;4.60;99.90;;;;;;5076982;28;20385;-86
2023/01/06 02:39:21;;;;;;;4.80;2.50;;;4.50;99.90;;;;;;5053986;28;20388;-86
2023/01/06 02:42:25;;;;;;;5.60;2.30;;;4.60;99.90;;;;;;5077163;28;20878;-85
2023/01/06 02:45:22;;;;;;;6.15;2.60;;;4.60;99.90;;;;;;5095907;28;20373;-86
2023/01/06 02:47:47;;;;;;;4.95;2.30;;;4.60;99.90;;;;;;5078973;28;20399;-84
2023/01/06 02:50:48;;;;;;;5.80;2.77;;;4.60;99.90;;;;;;5092716;28;20400;-86
2023/01/06 02:53:25;;;;;;;7.18;3.08;;;4.70;99.90;;;;;;5074284;28;20388;-85
2023/01/06 02:55:54;;;;;;;6.03;2.40;;;4.80;99.90;;;;;;5077478;28;20385;-85
2023/01/06 02:58:52;;;;;;;6.45;2.25;;;4.90;99.90;;;;;;5094128;28;20377;-85
2023/01/06 03:01:36;;;;;;;4.35;2.33;;;5.00;99.90;;;;;;5023472;28;20464;-85
2023/01/06 03:04:06;;;;;;;4.90;2.50;;;4.90;99.90;;;;;;5074615;28;20377;-86
2023/01/06 03:06:34;;;;;;;5.90;2.67;;;4.90;99.90;;;;;;5093527;28;20861;-86
2023/01/06 03:09:02;;;;;;;4.63;2.10;;;4.80;99.90;;;;;;5078543;28;20878;-84
2023/01/06 03:11:31;;;;;;;6.10;2.50;;;4.90;99.90;;;;;;5076741;28;20491;-85
2023/01/06 03:14:14;;;;;;;5.43;2.25;;;4.80;99.90;;;;;;5075776;28;20405;-85
2023/01/06 03:16:40;;;;;;;5.65;2.78;;;4.90;99.90;;;;;;5094910;28;20392;-85
2023/01/06 03:19:06;;;;;;;6.93;2.83;;;4.80;99.90;;;;;;5074439;28;20429;-85
2023/01/06 03:21:36;;;;;;;6.43;2.80;;;5.00;99.90;;;;;;5096577;28;20376;-85
2023/01/06 03:24:04;;;;;;;5.03;2.53;;;4.90;99.90;;;;;;5076873;28;20430;-85
2023/01/06 03:26:31;;;;;;;5.15;2.63;;;4.90;99.90;;;;;;5078038;28;20385;-87
2023/01/06 03:28:57;;;;;;;5.68;2.67;;;5.10;99.90;;;;;;5076570;28;20476;-87
2023/01/06 03:31:38;;;;;;;5.45;2.35;;;5.10;99.90;;;;;;5079119;28;20404;-87
2023/01/06 03:34:28;;;;;;;7.10;2.88;;;5.00;99.90;;;;;;5078958;28;20377;-88
2023/01/06 03:37:26;;;;;;;5.50;2.50;;;5.00;99.90;;;;;;5098699;28;20381;-87
2023/01/06 03:40:07;;;;;;;6.53;2.55;;;5.00;99.90;;;;;;5040847;28;20389;-87
2023/01/06 03:43:11;;;;;;;5.65;2.80;;;5.10;99.90;;;;;;5095235;28;20373;-87
2023/01/06 03:45:55;;;;;;;8.67;3.00;;;5.20;99.90;;;;;;5059368;28;20369;-87
2023/01/06 03:48:55;;;;;;;6.25;2.70;;;5.20;99.90;;;;;;5080730;28;20399;-86
2023/01/06 03:51:37;;;;;;;6.93;2.50;;;5.20;99.90;;;;;;5075109;28;20458;-87
2023/01/06 03:54:21;;;;;;;6.95;2.80;;;5.10;99.90;;;;;;5079187;28;20373;-88
2023/01/06 03:56:57;;;;;;;5.85;2.47;;;5.20;99.90;;;;;;5077236;28;20376;-86
2023/01/06 03:59:27;;;;;;;7.53;2.83;;;5.20;99.90;;;;;;5079801;28;20377;-87
2023/01/06 04:01:53;;;;;;;7.53;3.00;;;5.20;99.90;;;;;;5098411;28;20375;-87
2023/01/06 04:04:19;;;;;;;7.20;3.20;;;5.30;99.90;;;;;;5095906;28;20372;-87
2023/01/06 04:06:45;;;;;;;6.67;3.10;;;5.20;99.90;;;;;;5078260;28;20438;-87
2023/01/06 04:09:11;;;;;;;5.27;3.10;;;5.20;99.90;;;;;;5066307;28;20386;-87
2023/01/06 04:14:24;;;;;;;7.57;3.40;;;5.30;99.90;;;;;;5077750;28;20934;-87
2023/01/06 04:16:49;;;;;;;6.57;3.27;;;5.30;99.90;;;;;;5059589;28;20382;-87
2023/01/06 04:19:15;;;;;;;7.27;3.10;;;5.20;99.90;;;;;;5078603;28;20370;-87
2023/01/06 04:21:41;;;;;;;7.73;3.33;;;5.30;99.90;;;;;;5058133;28;20466;-87
2023/01/06 04:24:07;;;;;;;6.88;3.33;;;5.30;99.90;;;;;;5058192;28;20370;-87
2023/01/06 04:26:32;;;;;;;9.65;3.53;;;5.30;99.90;;;;;;5059367;28;20386;-87
2023/01/06 04:28:59;;;;;;;7.18;3.25;;;5.40;99.90;;;;;;5075862;28;20389;-86
2023/01/06 04:31:25;;;;;;;8.07;3.55;;;5.30;99.90;;;;;;5059680;28;20421;-86
2023/01/06 04:33:51;;;;;;;8.95;3.25;;;5.30;99.90;;;;;;5057417;28;20378;-85
2023/01/06 04:36:19;;;;;;;7.83;3.17;;;5.30;99.90;;;;;;5076638;28;20377;-87
2023/01/06 04:38:45;;;;;;;7.28;3.65;;;5.30;99.90;;;;;;5073926;28;20374;-87
2023/01/06 04:41:11;;;;;;;8.80;3.50;;;5.30;99.90;;;;;;5056634;28;20443;-88
2023/01/06 04:43:36;;;;;;;8.17;3.70;;;5.30;99.90;;;;;;5058782;28;20461;-87
2023/01/06 04:46:02;;;;;;;8.63;3.80;;;5.30;99.90;;;;;;5057716;28;20431;-86
2023/01/06 04:48:28;;;;;;;7.53;3.45;;;5.30;99.90;;;;;;5056060;28;20421;-88
2023/01/06 04:51:05;;;;;;;10.40;2.90;;;5.30;99.90;;;;;;5057628;28;20474;-87
2023/01/06 04:53:36;;;;;;;7.25;3.58;;;5.30;99.90;;;;;;5056805;28;20382;-86
2023/01/06 04:56:06;;;;;;;9.80;3.33;;;5.30;99.90;;;;;;5075614;28;20410;-87
2023/01/06 04:58:33;;;;;;;8.48;3.50;;;5.30;99.90;;;;;;5057253;28;20466;-86
2023/01/06 05:01:01;;;;;;;7.68;3.97;;;5.30;99.90;;;;;;5058496;28;20386;-87
2023/01/06 05:03:26;;;;;;;11.35;3.60;;;5.40;99.90;;;;;;5075769;28;20454;-87
2023/01/06 05:05:52;;;;;;;9.55;3.70;;;5.30;99.90;;;;;;5056530;28;20443;-86
2023/01/06 05:08:18;;;;;;;10.95;3.78;;;5.30;99.90;;;;;;5056551;28;20398;-87
2023/01/06 05:10:44;;;;;;;7.60;3.97;;;5.30;99.90;;;;;;5058135;28;20416;-87
2023/01/06 05:13:09;;;;;;;10.38;3.38;;;5.40;99.90;;;;;;5055941;28;20389;-87
2023/01/06 05:15:38;;;;;;;11.48;4.05;;;5.40;99.90;;;;;;5077829;28;20377;-87
2023/01/06 05:18:04;;;;;;;7.63;3.33;;;5.40;99.90;;;;;;5075645;28;20381;-87
2023/01/06 05:20:30;;;;;;;7.38;3.60;;;5.50;99.90;;;;;;5076299;28;20434;-88
2023/01/06 05:22:55;;;;;;;8.07;3.60;;;5.50;99.90;;;;;;5059933;28;20428;-86
2023/01/06 05:25:21;;;;;;;7.37;3.70;;;5.50;99.90;;;;;;5061019;28;20422;-88
2023/01/06 05:27:47;;;;;;;8.25;3.90;;;5.50;99.90;;;;;;5062384;28;20393;-88
2023/01/06 05:30:13;;;;;;;8.90;4.15;;;5.50;99.90;;;;;;5066201;28;20402;-87
2023/01/06 05:32:39;;;;;;;8.10;4.10;;;5.50;99.90;;;;;;5090073;28;20382;-86
2023/01/06 05:35:05;;;;;;;6.13;4.10;;;5.50;99.90;;;;;;5069180;28;20378;-87
2023/01/06 05:37:31;;;;;;;9.15;4.30;;;5.50;99.90;;;;;;5059609;28;20469;-88
2023/01/06 05:39:56;;;;;;;11.73;4.60;;;5.50;99.90;;;;;;5060147;28;20406;-88
2023/01/06 05:42:22;;;;;;;9.85;4.20;;;5.50;99.90;;;;;;5062886;28;20377;-87
2023/01/06 05:44:48;;;;;;;8.97;5.10;;;5.50;99.90;;;;;;5061102;28;20378;-87
2023/01/06 05:47:13;;;;;;;12.47;5.17;;;5.50;99.90;;;;;;5073755;28;20465;-88
2023/01/06 05:49:39;;;;;;;9.75;5.30;;;5.40;99.90;;;;;;5058451;28;20896;-87
2023/01/06 05:52:05;;;;;;;11.13;5.22;;;5.60;99.90;;;;;;5058629;28;20908;-88
2023/01/06 05:54:31;;;;;;;11.00;5.55;;;5.50;99.90;;;;;;5058577;28;20873;-87
2023/01/06 05:56:56;;;;;;;11.47;5.80;;;5.40;99.90;;;;;;5058865;28;20378;-88
2023/01/06 05:59:22;;;;;;;12.53;5.87;;;5.40;99.90;;;;;;5058641;28;20505;-86
2023/01/06 06:01:48;;;;;;;12.88;6.25;;;5.40;99.90;;;;;;5077790;28;20445;-87
2023/01/06 06:04:14;;;;;;;12.20;6.23;;;5.40;99.90;;;;;;5060911;28;20466;-87
2023/01/06 06:06:40;;;;;;;10.47;5.67;;;5.40;99.90;;;;;;5059759;28;20414;-86
2023/01/06 06:09:06;;;;;;;15.63;6.93;;;5.30;99.90;;;;;;5078502;28;20405;-85
2023/01/06 06:11:31;;;;;;;11.77;6.63;;;5.40;99.90;;;;;;5063366;28;20398;-85
2023/01/06 06:13:57;;;;;;;12.15;6.57;;;5.40;99.90;;;;;;5064050;28;20380;-86
2023/01/06 06:16:25;;;;;;;11.07;6.37;;;5.50;99.90;;;;;;5055122;28;20417;-87
2023/01/06 06:18:54;;;;;;;10.45;6.88;;;5.50;99.90;;;;;;5057729;28;20374;-85
2023/01/06 06:21:24;;;;;;;15.63;7.47;;;5.50;99.90;;;;;;5057981;28;20470;-86
2023/01/06 06:23:52;;;;;;;14.43;7.80;;;5.50;99.90;;;;;;5077842;28;20467;-86
2023/01/06 06:26:18;;;;;;;16.25;7.50;;;5.50;99.90;;;;;;5058711;28;20379;-86
2023/01/06 06:28:44;;;;;;;13.40;7.15;;;5.60;99.90;;;;;;5072836;28;20370;-86
2023/01/06 06:31:14;;;;;;;14.32;7.18;;;5.60;99.90;;;;;;5057458;28;20813;-85
2023/01/06 06:33:40;;;;;;;12.75;7.40;;;5.60;99.90;;;;;;5058613;28;20779;-87
2023/01/06 06:36:11;;;;;;;14.88;7.65;;;5.70;99.90;;;;;;5059349;28;20405;-85
2023/01/06 06:38:38;;;;;;;13.65;7.82;;;5.70;99.90;;;;;;5077163;28;20389;-87
2023/01/06 06:41:04;;;;;;;18.00;7.68;;;5.60;99.90;;;;;;5077330;28;20390;-86
2023/01/06 06:43:29;;;;;;;16.17;8.18;;;5.80;99.90;;;;;;5059063;28;20386;-86
2023/01/06 06:45:55;;;;;;;15.55;8.10;;;5.80;99.90;;;;;;5062326;28;20397;-85
2023/01/06 06:48:21;;;;;;;13.98;8.63;;;5.80;99.90;;;;;;5057830;28;20756;-86
2023/01/06 06:50:56;;;;;;;17.15;9.32;;;5.80;99.90;;;;;;5062932;28;20400;-85
2023/01/06 06:53:21;;;;;;;15.85;9.35;;;5.80;99.90;;;;;;5061286;28;20382;-86
2023/01/06 06:55:47;;;;;;;14.67;8.60;;;5.70;99.90;;;;;;5060278;28;20795;-87
2023/01/06 06:58:13;;;;;;;16.23;9.30;;;5.80;99.90;;;;;;5060112;28;20381;-85
2023/01/06 07:00:39;;;;;;;17.58;9.45;;;5.80;99.90;;;;;;5075797;28;20454;-87
2023/01/06 07:03:04;;;;;;;15.93;9.30;;;5.80;99.90;;;;;;5058398;28;20532;-87
2023/01/06 07:05:30;;;;;;;17.03;9.73;;;5.90;99.90;;;;;;5074149;28;20427;-86
2023/01/06 07:07:56;;;;;;;16.08;9.73;;;5.90;99.90;;;;;;5056510;28;20378;-86
2023/01/06 07:10:22;;;;;;;18.23;10.38;;;5.90;99.90;;;;;;5073076;28;20414;-86
2023/01/06 07:12:47;;;;;;;15.52;9.80;;;6.00;99.90;;;;;;5053046;28;20451;-87
2023/01/06 07:15:13;;;;;;;16.23;10.52;;;5.90;99.90;;;;;;5070838;28;20378;-86
2023/01/06 07:17:40;;;;;;;15.77;10.30;;;5.90;99.90;;;;;;5056226;28;20423;-87
2023/01/06 07:20:07;;;;;;;19.00;11.10;;;5.90;99.90;;;;;;5072972;28;20378;-85
2023/01/06 07:22:37;;;;;;;19.70;11.10;;;6.00;99.90;;;;;;5054827;28;20438;-87
2023/01/06 07:25:03;;;;;;;17.70;11.40;;;6.00;99.90;;;;;;5054824;28;20397;-86
2023/01/06 07:27:29;;;;;;;16.17;10.73;;;6.00;99.90;;;;;;5067387;28;20401;-86
2023/01/06 07:29:55;;;;;;;13.90;10.88;;;6.20;99.90;;;;;;5067865;28;20382;-85
2023/01/06 07:32:20;;;;;;;15.47;10.70;;;6.10;99.90;;;;;;5067716;28;20730;-86
2023/01/06 07:34:47;;;;;;;18.07;10.90;;;6.10;99.90;;;;;;5068856;28;20435;-87
2023/01/06 07:37:13;;;;;;;16.30;11.32;;;6.20;99.90;;;;;;5067846;28;20370;-85
2023/01/06 07:39:39;;;;;;;16.63;11.30;;;6.20;99.90;;;;;;5069882;28;20955;-84
2023/01/06 07:42:07;;;;;;;15.05;11.18;;;6.20;99.90;;;;;;5069568;28;20384;-86
2023/01/06 07:44:34;;;;;;;15.45;10.68;;;6.30;99.90;;;;;;5069765;28;20374;-84
2023/01/06 07:47:01;;;;;;;15.75;10.70;;;6.40;99.90;;;;;;5069294;28;20382;-85
2023/01/06 07:49:27;;;;;;;17.02;11.18;;;6.40;99.90;;;;;;5069326;28;20396;-86
2023/01/06 07:51:52;;;;;;;19.52;10.82;;;6.30;99.90;;;;;;5068042;28;20406;-84
2023/01/06 07:54:18;;;;;;;15.63;10.82;;;6.40;99.90;;;;;;5069521;28;20439;-87
2023/01/06 07:56:44;;;;;;;16.75;11.02;;;6.40;99.90;;;;;;5067749;28;20433;-87
2023/01/06 07:59:10;;;;;;;16.40;11.00;;;6.40;99.90;;;;;;5069238;28;20389;-86
2023/01/06 08:01:36;;;;;;;17.53;12.23;;;6.50;99.90;;;;;;5067694;28;20370;-86
2023/01/06 08:04:03;;;;;;;16.83;11.80;;;6.50;99.90;;;;;;5068067;28;20468;-85
2023/01/06 08:06:29;;;;;;;18.60;12.25;;;6.50;99.90;;;;;;5069207;28;20378;-86
2023/01/06 08:08:55;;;;;;;17.85;11.77;;;6.50;99.90;;;;;;5068898;28;20374;-86
2023/01/06 08:11:21;;;;;;;19.05;12.48;;;6.60;99.90;;;;;;5070699;28;20402;-84
2023/01/06 08:13:47;;;;;;;16.88;12.38;;;6.70;99.90;;;;;;5065718;28;20389;-85
2023/01/06 08:16:12;;;;;;;18.53;13.03;;;6.70;99.90;;;;;;5075169;28;20394;-86
2023/01/06 08:18:38;;;;;;;18.70;11.97;;;6.80;99.90;;;;;;5068781;28;20927;-86
2023/01/06 08:21:06;;;;;;;17.37;13.37;;;6.90;99.90;;;;;;5068020;28;20469;-87
2023/01/06 08:23:34;;;;;;;19.55;12.90;;;6.90;99.90;;;;;;5067518;28;20389;-85
2023/01/06 08:26:14;;;;;;;18.95;13.90;;;6.80;99.90;;;;;;5067852;28;20447;-85
2023/01/06 08:28:44;;;;;;;19.20;12.77;;;6.80;99.90;;;;;;5068965;28;20370;-87
2023/01/06 08:31:12;;;;;;;17.43;13.13;;;6.90;99.90;;;;;;5068598;28;20457;-86
2023/01/06 08:33:38;;;;;;;22.17;13.82;;;7.10;99.90;;;;;;5070537;28;20424;-86
2023/01/06 08:36:07;;;;;;;17.50;13.25;;;7.10;99.90;;;;;;5069297;28;20490;-86
2023/01/06 08:38:34;;;;;;;18.05;13.07;;;7.10;99.90;;;;;;5070075;28;20433;-85
2023/01/06 08:41:01;;;;;;;20.47;13.67;;;7.10;99.90;;;;;;5070558;28;20457;-86
2023/01/06 08:43:27;;;;;;;19.33;13.60;;;7.10;99.90;;;;;;5072996;28;20689;-85
2023/01/06 08:46:02;;;;;;;18.80;14.02;;;7.10;99.90;;;;;;5073056;28;20390;-86
2023/01/06 08:48:29;;;;;;;22.67;13.73;;;7.20;99.90;;;;;;5066836;28;20374;-86
2023/01/06 08:50:55;;;;;;;20.17;13.80;;;7.30;99.90;;;;;;5069857;28;20480;-86
2023/01/06 08:53:21;;;;;;;20.23;13.77;;;7.30;99.90;;;;;;5072260;28;20409;-85
2023/01/06 08:55:47;;;;;;;22.15;13.45;;;7.40;99.90;;;;;;5073134;28;20375;-85
2023/01/06 08:58:13;;;;;;;21.10;14.75;;;7.50;99.90;;;;;;5073117;28;20377;-87
2023/01/06 09:00:40;;;;;;;18.48;13.82;;;7.50;99.90;;;;;;5069536;28;20378;-85
2023/01/06 09:03:06;;;;;;;23.00;13.88;;;7.60;99.90;;;;;;5070109;28;20714;-85
2023/01/06 09:05:32;;;;;;;20.95;14.27;;;7.70;99.90;;;;;;5068172;28;20929;-85
2023/01/06 09:07:58;;;;;;;19.98;13.57;;;7.70;99.90;;;;;;5067114;28;20382;-85
2023/01/06 09:10:24;;;;;;;17.67;13.50;;;7.70;99.90;;;;;;5069580;28;20411;-86
2023/01/06 09:12:50;;;;;;;21.63;14.00;;;7.80;99.90;;;;;;5073663;28;20389;-85
2023/01/06 09:15:15;;;;;;;18.98;13.45;;;7.70;99.90;;;;;;5072879;28;20370;-85
2023/01/06 09:17:41;;;;;;;22.13;13.77;;;7.70;99.90;;;;;;5069345;28;20378;-84
2023/01/06 09:20:07;;;;;;;19.40;13.70;;;7.80;99.90;;;;;;5072254;28;20382;-85
2023/01/06 09:22:33;;;;;;;20.77;13.60;;;7.80;99.90;;;;;;5071085;28;20382;-85
2023/01/06 09:24:59;;;;;;;22.13;13.10;;;7.90;99.90;;;;;;5070182;28;20721;-85
2023/01/06 09:27:31;;;;;;;20.83;14.60;;;8.00;99.90;;;;;;5070290;28;20374;-83
2023/01/06 09:30:01;;;;;;;20.75;14.20;;;8.10;99.90;;;;;;5070095;28;20532;-82
2023/01/06 09:32:26;;;;;;;21.40;13.65;;;8.10;99.90;;;;;;5069636;28;20485;-83
2023/01/06 09:34:52;;;;;;;17.45;12.48;;;8.20;99.90;;;;;;5070897;28;20511;-83
2023/01/06 09:37:29;;;;;;;20.55;12.85;;;8.20;99.90;;;;;;5071165;28;20532;-83
2023/01/06 09:39:55;;;;;;;18.17;12.60;;;8.30;99.90;;;;;;5071385;28;20421;-85
2023/01/06 09:42:33;;;;;;;21.77;12.90;;;8.20;99.90;;;;;;5069795;28;20433;-82
2023/01/06 09:45:29;;;;;;;21.42;12.13;;;8.40;99.90;;;;;;5070691;28;20432;-82
2023/01/06 09:47:58;;;;;;;17.67;12.25;;;8.60;99.90;;;;;;5068652;28;20398;-83
2023/01/06 09:50:34;;;;;;;19.33;12.02;;;8.70;99.90;;;;;;5070543;28;20496;-84
2023/01/06 09:53:21;;;;;;;19.60;12.35;;;8.80;99.90;;;;;;5069975;28;20902;-84
2023/01/06 09:55:59;;;;;;;19.10;11.85;;;8.80;99.90;;;;;;5073495;28;20367;-85
2023/01/06 09:58:38;;;;;;;15.73;11.02;;;8.80;99.90;;;;;;5070708;28;20457;-86
2023/01/06 10:01:09;;;;;;;16.33;11.80;;;8.90;99.90;;;;;;5042724;28;20408;-87
2023/01/06 10:03:35;;;;;;;15.95;11.52;;;8.90;99.90;;;;;;5051534;28;20397;-84
2023/01/06 10:06:44;;;;;;;16.73;12.05;;;9.00;99.90;;;;;;5068719;28;20398;-87
2023/01/06 10:09:16;;;;;;;16.55;11.68;;;9.10;99.90;;;;;;5048947;28;20445;-85
2023/01/06 10:12:04;;;;;;;14.32;11.25;;;9.10;99.90;;;;;;5052163;28;20498;-86
2023/01/06 10:14:37;;;;;;;16.47;11.57;;;9.20;99.90;;;;;;5035312;28;20687;-86
2023/01/06 10:17:11;;;;;;;16.38;11.63;;;9.30;99.90;;;;;;5072364;28;20939;-85
2023/01/06 10:20:05;;;;;;;13.93;10.98;;;9.30;99.90;;;;;;5057092;28;20378;-86
2023/01/06 10:22:53;;;;;;;15.77;11.30;;;9.30;99.90;;;;;;5063755;28;20427;-85
2023/01/06 10:25:21;;;;;;;15.77;11.18;;;9.40;99.90;;;;;;5034488;28;20925;-85
2023/01/06 10:28:15;;;;;;;15.60;11.40;;;9.40;99.90;;;;;;5052258;28;20401;-85
2023/01/06 10:30:51;;;;;;;17.00;11.48;;;9.50;99.90;;;;;;5047541;28;20409;-85
2023/01/06 10:33:22;;;;;;;13.50;10.27;;;9.60;99.90;;;;;;5065524;28;20539;-85
2023/01/06 10:35:49;;;;;;;14.70;10.93;;;9.50;99.90;;;;;;5058214;28;20396;-87
2023/01/06 10:38:17;;;;;;;14.45;10.45;;;9.60;99.90;;;;;;5063327;28;20897;-85
2023/01/06 10:40:43;;;;;;;10.88;9.48;;;9.60;99.90;;;;;;5083746;28;20399;-84
2023/01/06 10:43:12;;;;;;;11.60;9.68;;;9.70;99.90;;;;;;5078367;28;20387;-83
2023/01/06 10:45:43;;;;;;;13.05;10.18;;;9.60;99.90;;;;;;5060099;28;20400;-85
2023/01/06 10:48:37;;;;;;;13.45;9.50;;;9.60;99.90;;;;;;5063577;28;20376;-85
2023/01/06 10:51:19;;;;;;;12.82;10.10;;;9.60;99.90;;;;;;5047131;28;20454;-86
2023/01/06 10:53:52;;;;;;;13.75;9.85;;;9.60;99.90;;;;;;5063707;28;20384;-84
2023/01/06 10:56:21;;;;;;;12.85;9.73;;;9.50;99.90;;;;;;5064209;28;20479;-85
2023/01/06 10:59:12;;;;;;;13.90;9.73;;;9.50;99.90;;;;;;5074880;28;20412;-86
2023/01/06 11:04:50;;;;;;;14.40;9.98;;;9.30;99.90;;;;;;5058832;28;20888;-85
2023/01/06 11:08:29;;;;;;;12.82;9.60;;;9.30;99.90;;;;;;5050864;28;20394;-85
2023/01/06 11:11:43;;;;;;;13.68;9.13;;;9.50;99.90;;;;;;4978771;28;20418;-85
2023/01/06 11:14:21;;;;;;;11.52;8.75;;;9.50;99.90;;;;;;5041054;28;20407;-83
2023/01/06 11:17:06;;;;;;;11.85;9.25;;;9.50;99.90;;;;;;5047545;28;20464;-85
2023/01/06 11:19:44;;;;;;;11.30;8.77;;;9.60;99.90;;;;;;5052462;28;20880;-85
2023/01/06 11:22:29;;;;;;;11.38;8.82;;;9.60;99.90;;;;;;5052367;28;20377;-85
2023/01/06 11:24:55;;;;;;;10.43;8.75;;;9.60;99.90;;;;;;5062397;28;20384;-85
2023/01/06 11:27:21;;;;;;;11.43;8.93;;;9.70;99.90;;;;;;5037023;28;20438;-85
2023/01/06 11:29:47;;;;;;;11.63;8.70;;;9.70;99.90;;;;;;5069676;28;20792;-85
2023/01/06 11:32:25;;;;;;;9.60;8.25;;;9.70;99.90;;;;;;5048872;28;20796;-85
2023/01/06 11:35:18;;;;;;;;;;;;;;;;;;;;;
2023/01/06 11:37:59;;;;;;;9.95;7.93;;;9.80;99.90;;;;;;5052328;28;20400;-85
2023/01/06 11:40:33;;;;;;;10.15;7.60;;;9.70;99.90;;;;;;5039687;28;20398;-85
2023/01/06 11:43:06;;;;;;;9.73;8.23;;;9.70;99.90;;;;;;5061810;28;20896;-89
2023/01/06 11:46:01;;;;;;;10.07;7.50;;;9.70;99.90;;;;;;5063950;28;20424;-88
2023/01/06 11:48:43;;;;;;;10.40;7.78;;;9.80;99.90;;;;;;5059950;28;20398;-83
2023/01/06 11:51:09;;;;;;;10.93;8.07;;;9.70;99.90;;;;;;5063239;28;20402;-84
2023/01/06 11:53:39;;;;;;;9.25;7.22;;;9.80;99.90;;;;;;5068034;28;20839;-83
2023/01/06 11:56:14;;;;;;;8.70;7.20;;;9.80;99.90;;;;;;5049785;28;20390;-82
2023/01/06 11:58:45;;;;;;;9.98;7.40;;;10.00;99.90;;;;;;5067849;28;20455;-81
2023/01/06 12:01:34;;;;;;;9.90;7.10;;;10.00;99.90;;;;;;5068547;28;20714;-81
2023/01/06 12:04:26;;;;;;;10.45;7.00;;;10.00;99.90;;;;;;5064388;28;20488;-82
2023/01/06 12:06:58;;;;;;;8.77;6.50;;;10.00;99.90;;;;;;5063977;28;20386;-83
2023/01/06 12:09:40;;;;;;;8.13;6.72;;;10.00;99.90;;;;;;5050680;28;20936;-84
2023/01/06 12:12:09;;;;;;;9.07;6.70;;;10.00;99.90;;;;;;5051570;28;20746;-82
2023/01/06 12:14:41;;;;;;;8.35;6.68;;;10.00;99.90;;;;;;5055182;28;20409;-83
2023/01/06 12:17:17;;;;;;;9.55;7.22;;;10.20;99.90;;;;;;5053186;28;20403;-83
2023/01/06 12:19:50;;;;;;;9.30;7.07;;;10.10;99.90;;;;;;5058099;28;20412;-83
2023/01/06 12:22:32;;;;;;;8.65;6.43;;;10.20;99.90;;;;;;5055337;28;20398;-83
2023/01/06 12:24:59;;;;;;;9.27;6.20;;;10.20;99.90;;;;;;5055389;28;20409;-83
2023/01/06 12:27:42;;;;;;;8.63;6.45;;;10.10;99.90;;;;;;5058620;28;20477;-83
2023/01/06 12:30:30;;;;;;;6.95;6.25;;;10.20;99.90;;;;;;5056288;28;20400;-83
2023/01/06 12:33:06;;;;;;;7.07;5.80;;;10.20;99.90;;;;;;5074050;28;20386;-84
2023/01/06 12:35:35;;;;;;;9.13;5.78;;;10.20;99.90;;;;;;5058525;28;20394;-83
2023/01/06 12:38:27;;;;;;;7.60;5.53;;;10.20;99.90;;;;;;5056615;28;20488;-82
2023/01/06 12:41:00;;;;;;;6.22;4.85;;;10.30;99.90;;;;;;5076055;28;20390;-83
2023/01/06 12:43:32;;;;;;;7.13;4.90;;;10.20;99.90;;;;;;5076034;28;20378;-84
2023/01/06 12:46:11;;;;;;;6.00;4.18;;;10.30;99.90;;;;;;5077249;28;20408;-84
2023/01/06 12:49:09;;;;;;;5.22;4.10;;;10.40;99.90;;;;;;5075980;28;20388;-85
2023/01/06 12:51:49;;;;;;;4.60;3.15;;;10.40;99.90;;;;;;5043757;28;20396;-85
2023/01/06 12:54:34;;;;;;;4.22;2.80;;;10.50;99.90;;;;;;5079084;28;21685;-84
2023/01/06 12:57:34;;;;;;;3.00;2.30;;;10.60;99.90;;;;;;5056029;28;20389;-85
2023/01/06 13:00:22;;;;;;;3.23;2.23;;;10.60;99.90;;;;;;5057825;28;20394;-86
2023/01/06 13:02:51;;;;;;;2.97;2.25;;;10.70;99.90;;;;;;5059152;28;20373;-87
2023/01/06 13:05:46;;;;;;;3.75;2.00;;;10.70;99.90;;;;;;5076657;28;20422;-87
2023/01/06 13:08:39;;;;;;;3.07;1.80;;;10.80;99.90;;;;;;5060488;28;20372;-85
2023/01/06 13:11:28;;;;;;;3.92;2.17;;;10.90;99.90;;;;;;5061790;28;20874;-85
2023/01/06 13:14:11;;;;;;;2.63;2.13;;;10.90;99.90;;;;;;5059911;28;20530;-86
2023/01/06 13:17:03;;;;;;;3.35;1.60;;;11.00;99.90;;;;;;5060731;28;20477;-86
2023/01/06 13:19:38;;;;;;;3.05;2.05;;;11.00;99.90;;;;;;5075734;28;20761;-86
2023/01/06 13:22:10;;;;;;;3.50;1.87;;;11.10;99.90;;;;;;5074621;28;20456;-86
2023/01/06 13:25:15;;;;;;;4.57;1.98;;;11.10;99.90;;;;;;5080631;28;20416;-86
2023/01/06 13:27:59;;;;;;;3.97;1.85;;;11.20;99.90;;;;;;5063330;28;20459;-89